sensor_id;sensor_type;location;lat;lon;timestamp;temperature;humidity
20735;DHT22;10528;52.124;5.196;2023-12-20T00:02:16;7.50;99.90
20735;DHT22;10528;52.124;5.196;2023-12-20T00:04:43;7.50;99.90
20735;DHT22;10528;52.124;5.196;2023-12-20T00:07:10;7.40;99.90
20735;DHT22;10528;52.124;5.196;2023-12-20T00:09:37;7.40;99.90
20735;DHT22;10528;52.124;5.196;2023-12-20T00:12:04;7.40;99.90
20735;DHT22;10528;52.124;5.196;2023-12-20T00:14:31;7.40;99.90
20735;DHT22;10528;52.124;5.196;2023-12-20T00:16:58;7.40;99.90
20735;DHT22;10528;52.124;5.196;2023-12-20T00:19:25;7.30;99.90
20735;DHT22;10528;52.124;5.196;2023-12-20T00:21:52;7.30;99.90
20735;DHT22;10528;52.124;5.196;2023-12-20T00:24:19;7.30;99.90
20735;DHT22;10528;52.124;5.196;2023-12-20T00:26:47;7.40;99.90
20735;DHT22;10528;52.124;5.196;2023-12-20T00:29:14;7.30;99.90
20735;DHT22;10528;52.124;5.196;2023-12-20T00:31:41;7.40;99.90
20735;DHT22;10528;52.124;5.196;2023-12-20T00:34:07;7.30;99.90
20735;DHT22;10528;52.124;5.196;2023-12-20T00:36:35;7.30;99.90
20735;DHT22;10528;52.124;5.196;2023-12-20T00:39:02;7.30;99.90
20735;DHT22;10528;52.124;5.196;2023-12-20T00:41:29;7.20;99.90
20735;DHT22;10528;52.124;5.196;2023-12-20T00:43:56;7.30;99.90
20735;DHT22;10528;52.124;5.196;2023-12-20T00:46:23;7.20;99.90
20735;DHT22;10528;52.124;5.196;2023-12-20T00:48:50;7.20;99.90
20735;DHT22;10528;52.124;5.196;2023-12-20T00:51:17;7.30;99.90
20735;DHT22;10528;52.124;5.196;2023-12-20T00:53:44;7.20;99.90
20735;DHT22;10528;52.124;5.196;2023-12-20T00:56:12;7.20;99.90
20735;DHT22;10528;52.124;5.196;2023-12-20T00:58:39;7.20;99.90
20735;DHT22;10528;52.124;5.196;2023-12-20T01:01:06;7.20;99.90
20735;DHT22;10528;52.124;5.196;2023-12-20T01:03:33;7.20;99.90
20735;DHT22;10528;52.124;5.196;2023-12-20T01:06:00;7.20;99.90
20735;DHT22;10528;52.124;5.196;2023-12-20T01:08:26;7.20;99.90
20735;DHT22;10528;52.124;5.196;2023-12-20T01:10:53;7.20;99.90
20735;DHT22;10528;52.124;5.196;2023-12-20T01:13:20;7.30;99.90
20735;DHT22;10528;52.124;5.196;2023-12-20T01:15:47;7.40;99.90
20735;DHT22;10528;52.124;5.196;2023-12-20T01:18:14;7.30;99.90
20735;DHT22;10528;52.124;5.196;2023-12-20T01:20:41;7.40;99.90
20735;DHT22;10528;52.124;5.196;2023-12-20T01:23:09;7.40;99.90
20735;DHT22;10528;52.124;5.196;2023-12-20T01:25:36;7.50;99.90
20735;DHT22;10528;52.124;5.196;2023-12-20T01:28:03;7.50;99.90
20735;DHT22;10528;52.124;5.196;2023-12-20T01:30:31;7.50;99.90
20735;DHT22;10528;52.124;5.196;2023-12-20T01:33:00;7.50;99.90
20735;DHT22;10528;52.124;5.196;2023-12-20T01:35:28;7.50;99.90
20735;DHT22;10528;52.124;5.196;2023-12-20T01:37:54;7.40;99.90
20735;DHT22;10528;52.124;5.196;2023-12-20T01:40:24;7.40;99.90
20735;DHT22;10528;52.124;5.196;2023-12-20T01:43:07;7.40;99.90
20735;DHT22;10528;52.124;5.196;2023-12-20T01:45:35;7.50;99.90
20735;DHT22;10528;52.124;5.196;2023-12-20T01:48:04;7.50;99.90
20735;DHT22;10528;52.124;5.196;2023-12-20T01:50:33;7.40;99.90
20735;DHT22;10528;52.124;5.196;2023-12-20T01:53:04;7.40;99.90
20735;DHT22;10528;52.124;5.196;2023-12-20T01:55:35;7.40;99.90
20735;DHT22;10528;52.124;5.196;2023-12-20T01:58:05;7.50;99.90
20735;DHT22;10528;52.124;5.196;2023-12-20T02:00:36;7.50;99.90
20735;DHT22;10528;52.124;5.196;2023-12-20T02:03:04;7.40;99.90
20735;DHT22;10528;52.124;5.196;2023-12-20T02:05:32;7.40;99.90
20735;DHT22;10528;52.124;5.196;2023-12-20T02:08:00;7.50;99.90
20735;DHT22;10528;52.124;5.196;2023-12-20T02:10:27;7.60;99.90
20735;DHT22;10528;52.124;5.196;2023-12-20T02:12:55;7.60;99.90
20735;DHT22;10528;52.124;5.196;2023-12-20T02:15:22;7.60;99.90
20735;DHT22;10528;52.124;5.196;2023-12-20T02:17:49;7.60;99.90
20735;DHT22;10528;52.124;5.196;2023-12-20T02:20:17;7.70;99.90
20735;DHT22;10528;52.124;5.196;2023-12-20T02:22:44;7.70;99.90
20735;DHT22;10528;52.124;5.196;2023-12-20T02:25:10;7.70;99.90
20735;DHT22;10528;52.124;5.196;2023-12-20T02:27:38;7.60;99.90
20735;DHT22;10528;52.124;5.196;2023-12-20T02:30:06;7.70;99.90
20735;DHT22;10528;52.124;5.196;2023-12-20T02:32:35;7.70;99.90
20735;DHT22;10528;52.124;5.196;2023-12-20T02:35:02;7.70;99.90
20735;DHT22;10528;52.124;5.196;2023-12-20T02:37:29;7.70;99.90
20735;DHT22;10528;52.124;5.196;2023-12-20T02:39:56;7.70;99.90
20735;DHT22;10528;52.124;5.196;2023-12-20T02:42:23;7.80;99.90
20735;DHT22;10528;52.124;5.196;2023-12-20T02:44:50;7.80;99.90
20735;DHT22;10528;52.124;5.196;2023-12-20T02:47:17;7.80;99.90
20735;DHT22;10528;52.124;5.196;2023-12-20T02:49:44;7.80;99.90
20735;DHT22;10528;52.124;5.196;2023-12-20T02:52:11;7.80;99.90
20735;DHT22;10528;52.124;5.196;2023-12-20T02:54:41;7.80;99.90
20735;DHT22;10528;52.124;5.196;2023-12-20T02:57:08;7.90;99.90
20735;DHT22;10528;52.124;5.196;2023-12-20T02:59:35;7.90;99.90
20735;DHT22;10528;52.124;5.196;2023-12-20T03:02:02;7.80;99.90
20735;DHT22;10528;52.124;5.196;2023-12-20T03:04:29;7.90;99.90
20735;DHT22;10528;52.124;5.196;2023-12-20T03:06:56;7.90;99.90
20735;DHT22;10528;52.124;5.196;2023-12-20T03:09:22;7.90;99.90
20735;DHT22;10528;52.124;5.196;2023-12-20T03:11:49;7.90;99.90
20735;DHT22;10528;52.124;5.196;2023-12-20T03:14:16;8.00;99.90
20735;DHT22;10528;52.124;5.196;2023-12-20T03:16:48;8.00;99.90
20735;DHT22;10528;52.124;5.196;2023-12-20T03:19:17;8.00;99.90
20735;DHT22;10528;52.124;5.196;2023-12-20T03:21:44;7.90;99.90
20735;DHT22;10528;52.124;5.196;2023-12-20T03:24:12;7.80;99.90
20735;DHT22;10528;52.124;5.196;2023-12-20T03:26:39;7.80;99.90
20735;DHT22;10528;52.124;5.196;2023-12-20T03:29:05;7.80;99.90
20735;DHT22;10528;52.124;5.196;2023-12-20T03:31:32;7.80;99.90
20735;DHT22;10528;52.124;5.196;2023-12-20T03:33:59;7.80;99.90
20735;DHT22;10528;52.124;5.196;2023-12-20T03:36:26;7.80;99.90
20735;DHT22;10528;52.124;5.196;2023-12-20T03:38:53;7.80;99.90
20735;DHT22;10528;52.124;5.196;2023-12-20T03:41:20;7.80;99.90
20735;DHT22;10528;52.124;5.196;2023-12-20T03:43:47;7.90;99.90
20735;DHT22;10528;52.124;5.196;2023-12-20T03:46:14;7.80;99.90
20735;DHT22;10528;52.124;5.196;2023-12-20T03:48:41;7.80;99.90
20735;DHT22;10528;52.124;5.196;2023-12-20T03:51:08;7.80;99.90
20735;DHT22;10528;52.124;5.196;2023-12-20T03:53:35;7.90;99.90
20735;DHT22;10528;52.124;5.196;2023-12-20T03:56:02;7.90;99.90
20735;DHT22;10528;52.124;5.196;2023-12-20T03:58:29;7.90;99.90
20735;DHT22;10528;52.124;5.196;2023-12-20T04:00:55;7.90;99.90
20735;DHT22;10528;52.124;5.196;2023-12-20T04:03:22;7.90;99.90
20735;DHT22;10528;52.124;5.196;2023-12-20T04:05:49;7.90;99.90
20735;DHT22;10528;52.124;5.196;2023-12-20T04:08:16;7.90;99.90
20735;DHT22;10528;52.124;5.196;2023-12-20T04:10:43;8.00;99.90
20735;DHT22;10528;52.124;5.196;2023-12-20T04:13:10;8.00;99.90
20735;DHT22;10528;52.124;5.196;2023-12-20T04:15:37;8.00;99.90
20735;DHT22;10528;52.124;5.196;2023-12-20T04:18:04;8.10;99.90
20735;DHT22;10528;52.124;5.196;2023-12-20T04:20:31;8.00;99.90
20735;DHT22;10528;52.124;5.196;2023-12-20T04:22:58;8.00;99.90
20735;DHT22;10528;52.124;5.196;2023-12-20T04:25:25;8.10;99.90
20735;DHT22;10528;52.124;5.196;2023-12-20T04:27:53;8.10;99.90
20735;DHT22;10528;52.124;5.196;2023-12-20T04:30:19;8.10;99.90
20735;DHT22;10528;52.124;5.196;2023-12-20T04:32:46;8.10;99.90
20735;DHT22;10528;52.124;5.196;2023-12-20T04:35:13;8.10;99.90
20735;DHT22;10528;52.124;5.196;2023-12-20T04:37:41;8.10;99.90
20735;DHT22;10528;52.124;5.196;2023-12-20T04:40:08;8.20;99.90
20735;DHT22;10528;52.124;5.196;2023-12-20T04:42:35;8.20;99.90
20735;DHT22;10528;52.124;5.196;2023-12-20T04:45:02;8.20;99.90
20735;DHT22;10528;52.124;5.196;2023-12-20T04:47:29;8.20;99.90
20735;DHT22;10528;52.124;5.196;2023-12-20T04:49:56;8.20;99.90
20735;DHT22;10528;52.124;5.196;2023-12-20T04:52:23;8.20;99.90
20735;DHT22;10528;52.124;5.196;2023-12-20T04:54:50;8.20;99.90
20735;DHT22;10528;52.124;5.196;2023-12-20T04:57:17;8.20;99.90
20735;DHT22;10528;52.124;5.196;2023-12-20T04:59:44;8.20;99.90
20735;DHT22;10528;52.124;5.196;2023-12-20T05:02:11;8.20;99.90
20735;DHT22;10528;52.124;5.196;2023-12-20T05:04:38;8.20;99.90
20735;DHT22;10528;52.124;5.196;2023-12-20T05:07:05;8.20;99.90
20735;DHT22;10528;52.124;5.196;2023-12-20T05:09:32;8.20;99.90
20735;DHT22;10528;52.124;5.196;2023-12-20T05:12:00;8.20;99.90
20735;DHT22;10528;52.124;5.196;2023-12-20T05:14:27;8.20;99.90
20735;DHT22;10528;52.124;5.196;2023-12-20T05:16:54;8.20;99.90
20735;DHT22;10528;52.124;5.196;2023-12-20T05:19:20;8.20;99.90
20735;DHT22;10528;52.124;5.196;2023-12-20T05:21:47;8.20;99.90
20735;DHT22;10528;52.124;5.196;2023-12-20T05:24:14;8.20;99.90
20735;DHT22;10528;52.124;5.196;2023-12-20T05:26:41;8.10;99.90
20735;DHT22;10528;52.124;5.196;2023-12-20T05:29:08;8.10;99.90
20735;DHT22;10528;52.124;5.196;2023-12-20T05:31:35;8.10;99.90
20735;DHT22;10528;52.124;5.196;2023-12-20T05:34:02;8.20;99.90
20735;DHT22;10528;52.124;5.196;2023-12-20T05:36:30;8.20;99.90
20735;DHT22;10528;52.124;5.196;2023-12-20T05:38:56;8.30;99.90
20735;DHT22;10528;52.124;5.196;2023-12-20T05:41:23;8.30;99.90
20735;DHT22;10528;52.124;5.196;2023-12-20T05:43:50;8.30;99.90
20735;DHT22;10528;52.124;5.196;2023-12-20T05:46:17;8.30;99.90
20735;DHT22;10528;52.124;5.196;2023-12-20T05:48:44;8.20;99.90
20735;DHT22;10528;52.124;5.196;2023-12-20T05:51:12;8.20;99.90
20735;DHT22;10528;52.124;5.196;2023-12-20T05:53:39;8.20;99.90
20735;DHT22;10528;52.124;5.196;2023-12-20T05:56:06;8.20;99.90
20735;DHT22;10528;52.124;5.196;2023-12-20T05:58:33;8.20;99.90
20735;DHT22;10528;52.124;5.196;2023-12-20T06:01:00;8.20;99.90
20735;DHT22;10528;52.124;5.196;2023-12-20T06:03:27;8.30;99.90
20735;DHT22;10528;52.124;5.196;2023-12-20T06:05:54;8.20;99.90
20735;DHT22;10528;52.124;5.196;2023-12-20T06:08:36;8.30;99.90
20735;DHT22;10528;52.124;5.196;2023-12-20T06:11:03;8.30;99.90
20735;DHT22;10528;52.124;5.196;2023-12-20T06:13:30;8.30;99.90
20735;DHT22;10528;52.124;5.196;2023-12-20T06:15:57;8.30;99.90
20735;DHT22;10528;52.124;5.196;2023-12-20T06:18:25;8.30;99.90
20735;DHT22;10528;52.124;5.196;2023-12-20T06:20:51;8.30;99.90
20735;DHT22;10528;52.124;5.196;2023-12-20T06:23:18;8.30;99.90
20735;DHT22;10528;52.124;5.196;2023-12-20T06:25:45;8.30;99.90
20735;DHT22;10528;52.124;5.196;2023-12-20T06:28:12;8.30;99.90
20735;DHT22;10528;52.124;5.196;2023-12-20T06:30:41;8.30;99.90
20735;DHT22;10528;52.124;5.196;2023-12-20T06:33:08;8.30;99.90
20735;DHT22;10528;52.124;5.196;2023-12-20T06:35:36;8.30;99.90
20735;DHT22;10528;52.124;5.196;2023-12-20T06:38:03;8.30;99.90
20735;DHT22;10528;52.124;5.196;2023-12-20T06:40:30;8.50;99.90
20735;DHT22;10528;52.124;5.196;2023-12-20T06:42:57;8.80;99.90
20735;DHT22;10528;52.124;5.196;2023-12-20T06:45:38;8.90;99.90
20735;DHT22;10528;52.124;5.196;2023-12-20T06:48:05;9.00;99.90
20735;DHT22;10528;52.124;5.196;2023-12-20T06:50:32;9.00;99.90
20735;DHT22;10528;52.124;5.196;2023-12-20T06:52:59;9.00;99.90
20735;DHT22;10528;52.124;5.196;2023-12-20T06:55:26;9.00;99.90
20735;DHT22;10528;52.124;5.196;2023-12-20T06:57:53;9.20;99.90
20735;DHT22;10528;52.124;5.196;2023-12-20T07:00:21;9.00;99.90
20735;DHT22;10528;52.124;5.196;2023-12-20T07:02:47;9.40;99.90
20735;DHT22;10528;52.124;5.196;2023-12-20T07:05:16;9.30;99.90
20735;DHT22;10528;52.124;5.196;2023-12-20T07:07:46;9.50;99.90
20735;DHT22;10528;52.124;5.196;2023-12-20T07:10:14;9.30;99.90
20735;DHT22;10528;52.124;5.196;2023-12-20T07:12:41;9.40;99.90
20735;DHT22;10528;52.124;5.196;2023-12-20T07:15:08;9.40;99.90
20735;DHT22;10528;52.124;5.196;2023-12-20T07:17:35;9.60;99.90
20735;DHT22;10528;52.124;5.196;2023-12-20T07:20:03;9.60;99.90
20735;DHT22;10528;52.124;5.196;2023-12-20T07:22:31;9.50;99.90
20735;DHT22;10528;52.124;5.196;2023-12-20T07:24:59;9.60;99.90
20735;DHT22;10528;52.124;5.196;2023-12-20T07:27:27;9.60;99.90
20735;DHT22;10528;52.124;5.196;2023-12-20T07:29:53;9.30;99.90
20735;DHT22;10528;52.124;5.196;2023-12-20T07:32:20;9.50;99.90
20735;DHT22;10528;52.124;5.196;2023-12-20T07:34:47;9.30;99.90
20735;DHT22;10528;52.124;5.196;2023-12-20T07:37:15;9.00;99.90
20735;DHT22;10528;52.124;5.196;2023-12-20T07:39:42;8.80;99.90
20735;DHT22;10528;52.124;5.196;2023-12-20T07:42:09;8.70;99.90
20735;DHT22;10528;52.124;5.196;2023-12-20T07:44:36;8.80;99.90
20735;DHT22;10528;52.124;5.196;2023-12-20T07:47:03;8.70;99.90
20735;DHT22;10528;52.124;5.196;2023-12-20T07:49:32;8.70;99.90
20735;DHT22;10528;52.124;5.196;2023-12-20T07:51:59;8.80;99.90
20735;DHT22;10528;52.124;5.196;2023-12-20T07:54:27;8.70;99.90
20735;DHT22;10528;52.124;5.196;2023-12-20T07:56:53;8.70;99.90
20735;DHT22;10528;52.124;5.196;2023-12-20T07:59:20;8.70;99.90
20735;DHT22;10528;52.124;5.196;2023-12-20T08:01:58;8.80;99.90
20735;DHT22;10528;52.124;5.196;2023-12-20T08:04:25;8.70;99.90
20735;DHT22;10528;52.124;5.196;2023-12-20T08:06:52;8.80;99.90
20735;DHT22;10528;52.124;5.196;2023-12-20T08:09:19;8.80;99.90
20735;DHT22;10528;52.124;5.196;2023-12-20T08:11:49;8.80;99.90
20735;DHT22;10528;52.124;5.196;2023-12-20T08:14:16;8.80;99.90
20735;DHT22;10528;52.124;5.196;2023-12-20T08:16:43;8.80;99.90
20735;DHT22;10528;52.124;5.196;2023-12-20T08:19:10;8.80;99.90
20735;DHT22;10528;52.124;5.196;2023-12-20T08:21:37;8.80;99.90
20735;DHT22;10528;52.124;5.196;2023-12-20T08:24:05;8.80;99.90
20735;DHT22;10528;52.124;5.196;2023-12-20T08:26:33;8.80;99.90
20735;DHT22;10528;52.124;5.196;2023-12-20T08:29:00;8.80;99.90
20735;DHT22;10528;52.124;5.196;2023-12-20T08:31:28;8.80;99.90
20735;DHT22;10528;52.124;5.196;2023-12-20T08:33:56;8.80;99.90
20735;DHT22;10528;52.124;5.196;2023-12-20T08:36:23;8.80;99.90
20735;DHT22;10528;52.124;5.196;2023-12-20T08:38:50;8.80;99.90
20735;DHT22;10528;52.124;5.196;2023-12-20T08:41:18;8.80;99.90
20735;DHT22;10528;52.124;5.196;2023-12-20T08:43:45;8.80;99.90
20735;DHT22;10528;52.124;5.196;2023-12-20T08:46:13;8.90;99.90
20735;DHT22;10528;52.124;5.196;2023-12-20T08:48:41;8.90;99.90
20735;DHT22;10528;52.124;5.196;2023-12-20T08:51:08;8.90;99.90
20735;DHT22;10528;52.124;5.196;2023-12-20T08:53:36;8.80;99.90
20735;DHT22;10528;52.124;5.196;2023-12-20T08:56:03;8.80;99.90
20735;DHT22;10528;52.124;5.196;2023-12-20T08:58:30;8.80;99.90
20735;DHT22;10528;52.124;5.196;2023-12-20T09:00:58;8.80;99.90
20735;DHT22;10528;52.124;5.196;2023-12-20T09:03:25;8.90;99.90
20735;DHT22;10528;52.124;5.196;2023-12-20T09:05:52;9.00;99.90
20735;DHT22;10528;52.124;5.196;2023-12-20T09:08:19;9.00;99.90
20735;DHT22;10528;52.124;5.196;2023-12-20T09:10:46;9.00;99.90
20735;DHT22;10528;52.124;5.196;2023-12-20T09:13:13;8.90;99.90
20735;DHT22;10528;52.124;5.196;2023-12-20T09:15:40;9.00;99.90
20735;DHT22;10528;52.124;5.196;2023-12-20T09:18:07;9.00;99.90
20735;DHT22;10528;52.124;5.196;2023-12-20T09:20:34;9.10;99.90
20735;DHT22;10528;52.124;5.196;2023-12-20T09:23:02;9.10;99.90
20735;DHT22;10528;52.124;5.196;2023-12-20T09:25:29;9.10;99.90
20735;DHT22;10528;52.124;5.196;2023-12-20T09:27:57;9.10;99.90
20735;DHT22;10528;52.124;5.196;2023-12-20T09:30:24;9.20;99.90
20735;DHT22;10528;52.124;5.196;2023-12-20T09:32:56;9.10;99.90
20735;DHT22;10528;52.124;5.196;2023-12-20T09:35:24;9.20;99.90
20735;DHT22;10528;52.124;5.196;2023-12-20T09:37:51;9.30;99.90
20735;DHT22;10528;52.124;5.196;2023-12-20T09:40:19;9.20;99.90
20735;DHT22;10528;52.124;5.196;2023-12-20T09:43:03;9.20;99.90
20735;DHT22;10528;52.124;5.196;2023-12-20T09:45:31;9.20;99.90
20735;DHT22;10528;52.124;5.196;2023-12-20T09:47:59;9.30;99.90
20735;DHT22;10528;52.124;5.196;2023-12-20T09:50:27;9.40;99.90
20735;DHT22;10528;52.124;5.196;2023-12-20T09:52:57;9.40;99.90
20735;DHT22;10528;52.124;5.196;2023-12-20T09:55:27;9.30;99.90
20735;DHT22;10528;52.124;5.196;2023-12-20T09:57:56;9.30;99.90
20735;DHT22;10528;52.124;5.196;2023-12-20T10:00:23;9.40;99.90
20735;DHT22;10528;52.124;5.196;2023-12-20T10:02:59;9.40;99.90
20735;DHT22;10528;52.124;5.196;2023-12-20T10:05:28;9.40;99.90
20735;DHT22;10528;52.124;5.196;2023-12-20T10:07:58;9.40;99.90
20735;DHT22;10528;52.124;5.196;2023-12-20T10:10:26;9.30;99.90
20735;DHT22;10528;52.124;5.196;2023-12-20T10:13:09;9.40;99.90
20735;DHT22;10528;52.124;5.196;2023-12-20T10:15:38;9.40;99.90
20735;DHT22;10528;52.124;5.196;2023-12-20T10:18:05;9.30;99.90
20735;DHT22;10528;52.124;5.196;2023-12-20T10:20:33;9.40;99.90
20735;DHT22;10528;52.124;5.196;2023-12-20T10:23:00;9.40;99.90
20735;DHT22;10528;52.124;5.196;2023-12-20T10:25:28;9.40;99.90
20735;DHT22;10528;52.124;5.196;2023-12-20T10:28:12;9.40;99.90
20735;DHT22;10528;52.124;5.196;2023-12-20T10:30:41;9.40;99.90
20735;DHT22;10528;52.124;5.196;2023-12-20T10:33:09;9.50;99.90
20735;DHT22;10528;52.124;5.196;2023-12-20T10:35:38;9.50;99.90
20735;DHT22;10528;52.124;5.196;2023-12-20T10:38:11;9.50;99.90
20735;DHT22;10528;52.124;5.196;2023-12-20T10:40:40;9.50;99.90
20735;DHT22;10528;52.124;5.196;2023-12-20T10:43:08;9.60;99.90
20735;DHT22;10528;52.124;5.196;2023-12-20T10:45:37;9.50;99.90
20735;DHT22;10528;52.124;5.196;2023-12-20T10:48:04;9.50;99.90
20735;DHT22;10528;52.124;5.196;2023-12-20T10:50:32;9.60;99.90
20735;DHT22;10528;52.124;5.196;2023-12-20T10:53:03;9.60;99.90
20735;DHT22;10528;52.124;5.196;2023-12-20T10:55:30;9.60;99.90
20735;DHT22;10528;52.124;5.196;2023-12-20T10:58:01;9.70;99.90
20735;DHT22;10528;52.124;5.196;2023-12-20T11:00:37;9.80;99.90
20735;DHT22;10528;52.124;5.196;2023-12-20T11:03:09;9.90;99.90
20735;DHT22;10528;52.124;5.196;2023-12-20T11:05:51;9.90;99.90
20735;DHT22;10528;52.124;5.196;2023-12-20T11:08:51;9.80;99.90
20735;DHT22;10528;52.124;5.196;2023-12-20T11:11:34;9.80;99.90
20735;DHT22;10528;52.124;5.196;2023-12-20T11:14:26;10.00;99.90
20735;DHT22;10528;52.124;5.196;2023-12-20T11:17:08;10.00;99.90
20735;DHT22;10528;52.124;5.196;2023-12-20T11:19:38;10.00;99.90
20735;DHT22;10528;52.124;5.196;2023-12-20T11:22:30;10.10;99.90
20735;DHT22;10528;52.124;5.196;2023-12-20T11:25:06;10.00;99.90
20735;DHT22;10528;52.124;5.196;2023-12-20T11:27:41;10.00;99.90
20735;DHT22;10528;52.124;5.196;2023-12-20T11:30:11;9.90;99.90
20735;DHT22;10528;52.124;5.196;2023-12-20T11:32:40;9.90;99.90
20735;DHT22;10528;52.124;5.196;2023-12-20T11:37:36;10.00;99.90
20735;DHT22;10528;52.124;5.196;2023-12-20T11:40:11;10.00;99.90
20735;DHT22;10528;52.124;5.196;2023-12-20T11:42:49;10.00;99.90
20735;DHT22;10528;52.124;5.196;2023-12-20T11:45:19;10.00;99.90
20735;DHT22;10528;52.124;5.196;2023-12-20T11:47:50;10.00;99.90
20735;DHT22;10528;52.124;5.196;2023-12-20T11:50:19;10.00;99.90
20735;DHT22;10528;52.124;5.196;2023-12-20T11:52:47;10.10;99.90
20735;DHT22;10528;52.124;5.196;2023-12-20T11:55:15;10.10;99.90
20735;DHT22;10528;52.124;5.196;2023-12-20T11:57:43;10.10;99.90
20735;DHT22;10528;52.124;5.196;2023-12-20T12:00:13;10.10;99.90
20735;DHT22;10528;52.124;5.196;2023-12-20T12:02:41;10.00;99.90
20735;DHT22;10528;52.124;5.196;2023-12-20T12:05:10;10.00;99.90
20735;DHT22;10528;52.124;5.196;2023-12-20T12:07:37;10.10;99.90
20735;DHT22;10528;52.124;5.196;2023-12-20T12:10:04;10.10;99.90
20735;DHT22;10528;52.124;5.196;2023-12-20T12:12:32;10.10;99.90
20735;DHT22;10528;52.124;5.196;2023-12-20T12:14:59;10.10;99.90
20735;DHT22;10528;52.124;5.196;2023-12-20T12:17:26;10.10;99.90
20735;DHT22;10528;52.124;5.196;2023-12-20T12:20:02;10.10;99.90
20735;DHT22;10528;52.124;5.196;2023-12-20T12:22:31;10.00;99.90
20735;DHT22;10528;52.124;5.196;2023-12-20T12:25:09;10.10;99.90
20735;DHT22;10528;52.124;5.196;2023-12-20T12:27:41;10.20;99.90
20735;DHT22;10528;52.124;5.196;2023-12-20T12:30:10;10.20;99.90
20735;DHT22;10528;52.124;5.196;2023-12-20T12:32:39;10.20;99.90
20735;DHT22;10528;52.124;5.196;2023-12-20T12:35:07;10.20;99.90
20735;DHT22;10528;52.124;5.196;2023-12-20T12:37:38;10.10;99.90
20735;DHT22;10528;52.124;5.196;2023-12-20T12:40:10;10.40;99.90
20735;DHT22;10528;52.124;5.196;2023-12-20T12:42:38;10.20;99.90
20735;DHT22;10528;52.124;5.196;2023-12-20T12:45:07;10.20;99.90
20735;DHT22;10528;52.124;5.196;2023-12-20T12:47:35;10.10;99.90
20735;DHT22;10528;52.124;5.196;2023-12-20T12:50:02;10.10;99.90
20735;DHT22;10528;52.124;5.196;2023-12-20T12:52:30;10.10;99.90
20735;DHT22;10528;52.124;5.196;2023-12-20T12:54:58;10.10;99.90
20735;DHT22;10528;52.124;5.196;2023-12-20T12:57:25;10.10;99.90
20735;DHT22;10528;52.124;5.196;2023-12-20T12:59:53;10.10;99.90
20735;DHT22;10528;52.124;5.196;2023-12-20T13:02:20;10.10;99.90
20735;DHT22;10528;52.124;5.196;2023-12-20T13:04:46;10.00;99.90
20735;DHT22;10528;52.124;5.196;2023-12-20T13:07:14;10.00;99.90
20735;DHT22;10528;52.124;5.196;2023-12-20T13:09:41;10.10;99.90
20735;DHT22;10528;52.124;5.196;2023-12-20T13:12:08;10.10;99.90
20735;DHT22;10528;52.124;5.196;2023-12-20T13:14:36;10.10;99.90
20735;DHT22;10528;52.124;5.196;2023-12-20T13:17:07;10.00;99.90
20735;DHT22;10528;52.124;5.196;2023-12-20T13:19:34;10.00;99.90
20735;DHT22;10528;52.124;5.196;2023-12-20T13:22:02;10.00;99.90
20735;DHT22;10528;52.124;5.196;2023-12-20T13:24:29;10.00;99.90
20735;DHT22;10528;52.124;5.196;2023-12-20T13:26:56;10.00;99.90
20735;DHT22;10528;52.124;5.196;2023-12-20T13:29:24;10.00;99.90
20735;DHT22;10528;52.124;5.196;2023-12-20T13:31:53;10.00;99.90
20735;DHT22;10528;52.124;5.196;2023-12-20T13:34:21;10.00;99.90
20735;DHT22;10528;52.124;5.196;2023-12-20T13:36:48;10.10;99.90
20735;DHT22;10528;52.124;5.196;2023-12-20T13:39:17;10.00;99.90
20735;DHT22;10528;52.124;5.196;2023-12-20T13:41:44;10.00;99.90
20735;DHT22;10528;52.124;5.196;2023-12-20T13:44:11;10.10;99.90
20735;DHT22;10528;52.124;5.196;2023-12-20T13:46:40;10.10;99.90
20735;DHT22;10528;52.124;5.196;2023-12-20T13:49:07;10.10;99.90
20735;DHT22;10528;52.124;5.196;2023-12-20T13:51:35;10.10;99.90
20735;DHT22;10528;52.124;5.196;2023-12-20T13:54:02;10.10;99.90
20735;DHT22;10528;52.124;5.196;2023-12-20T13:56:29;10.20;99.90
20735;DHT22;10528;52.124;5.196;2023-12-20T13:58:56;10.10;99.90
20735;DHT22;10528;52.124;5.196;2023-12-20T14:01:23;10.20;99.90
20735;DHT22;10528;52.124;5.196;2023-12-20T14:03:51;10.10;99.90
20735;DHT22;10528;52.124;5.196;2023-12-20T14:06:18;10.10;99.90
20735;DHT22;10528;52.124;5.196;2023-12-20T14:08:45;10.10;99.90
20735;DHT22;10528;52.124;5.196;2023-12-20T14:11:12;10.10;99.90
20735;DHT22;10528;52.124;5.196;2023-12-20T14:13:42;10.00;99.90
20735;DHT22;10528;52.124;5.196;2023-12-20T14:16:09;10.00;99.90
20735;DHT22;10528;52.124;5.196;2023-12-20T14:18:38;10.00;99.90
20735;DHT22;10528;52.124;5.196;2023-12-20T14:21:06;10.00;99.90
20735;DHT22;10528;52.124;5.196;2023-12-20T14:23:33;10.00;99.90
20735;DHT22;10528;52.124;5.196;2023-12-20T14:26:00;10.00;99.90
20735;DHT22;10528;52.124;5.196;2023-12-20T14:28:28;10.00;99.90
20735;DHT22;10528;52.124;5.196;2023-12-20T14:30:56;10.00;99.90
20735;DHT22;10528;52.124;5.196;2023-12-20T14:33:23;10.00;99.90
20735;DHT22;10528;52.124;5.196;2023-12-20T14:35:50;9.90;99.90
20735;DHT22;10528;52.124;5.196;2023-12-20T14:38:17;9.90;99.90
20735;DHT22;10528;52.124;5.196;2023-12-20T14:40:45;9.90;99.90
20735;DHT22;10528;52.124;5.196;2023-12-20T14:43:11;10.00;99.90
20735;DHT22;10528;52.124;5.196;2023-12-20T14:45:38;9.90;99.90
20735;DHT22;10528;52.124;5.196;2023-12-20T14:48:06;9.90;99.90
20735;DHT22;10528;52.124;5.196;2023-12-20T14:50:33;9.90;99.90
20735;DHT22;10528;52.124;5.196;2023-12-20T14:53:00;9.90;99.90
20735;DHT22;10528;52.124;5.196;2023-12-20T14:55:27;9.90;99.90
20735;DHT22;10528;52.124;5.196;2023-12-20T14:57:55;9.90;99.90
20735;DHT22;10528;52.124;5.196;2023-12-20T15:00:23;9.90;99.90
20735;DHT22;10528;52.124;5.196;2023-12-20T15:02:50;9.90;99.90
20735;DHT22;10528;52.124;5.196;2023-12-20T15:05:17;9.90;99.90
20735;DHT22;10528;52.124;5.196;2023-12-20T15:07:44;9.80;99.90
20735;DHT22;10528;52.124;5.196;2023-12-20T15:10:12;9.80;99.90
20735;DHT22;10528;52.124;5.196;2023-12-20T15:12:39;9.80;99.90
20735;DHT22;10528;52.124;5.196;2023-12-20T15:15:06;9.90;99.90
20735;DHT22;10528;52.124;5.196;2023-12-20T15:17:36;9.90;99.90
20735;DHT22;10528;52.124;5.196;2023-12-20T15:20:04;9.90;99.90
20735;DHT22;10528;52.124;5.196;2023-12-20T15:22:31;9.90;99.90
20735;DHT22;10528;52.124;5.196;2023-12-20T15:25:00;9.90;99.90
20735;DHT22;10528;52.124;5.196;2023-12-20T15:27:28;9.90;99.90
20735;DHT22;10528;52.124;5.196;2023-12-20T15:29:55;9.90;99.90
20735;DHT22;10528;52.124;5.196;2023-12-20T15:32:22;9.90;99.90
20735;DHT22;10528;52.124;5.196;2023-12-20T15:34:49;9.90;99.90
20735;DHT22;10528;52.124;5.196;2023-12-20T15:37:16;9.90;99.90
20735;DHT22;10528;52.124;5.196;2023-12-20T15:39:43;9.90;99.90
20735;DHT22;10528;52.124;5.196;2023-12-20T15:42:10;9.90;99.90
20735;DHT22;10528;52.124;5.196;2023-12-20T15:44:37;9.80;99.90
20735;DHT22;10528;52.124;5.196;2023-12-20T15:47:04;9.80;99.90
20735;DHT22;10528;52.124;5.196;2023-12-20T15:49:31;9.80;99.90
20735;DHT22;10528;52.124;5.196;2023-12-20T15:51:58;9.80;99.90